createdAt,value
2019-03-02T00:00:59.824Z,12.27
2019-03-02T00:03:31.689Z,13.30
2019-03-02T00:06:01.065Z,13.87
2019-03-02T00:08:31.535Z,13.73
2019-03-02T00:11:00.619Z,13.83
2019-03-02T00:13:29.660Z,13.10
2019-03-02T00:16:00.772Z,13.53
2019-03-02T00:18:30.004Z,13.23
2019-03-02T00:20:59.081Z,13.23
2019-03-02T00:23:28.123Z,12.90
2019-03-02T00:25:57.177Z,13.20
2019-03-02T00:28:26.241Z,13.97
2019-03-02T00:30:57.823Z,13.47
2019-03-02T00:33:26.073Z,13.60
2019-03-02T00:35:55.181Z,12.90
2019-03-02T00:38:24.263Z,12.90
2019-03-02T00:40:53.312Z,12.57
2019-03-02T00:43:27.022Z,13.67
2019-03-02T00:45:57.395Z,14.00
2019-03-02T00:48:26.584Z,12.23
2019-03-02T00:50:55.621Z,12.83
2019-03-02T00:53:24.913Z,13.20
2019-03-02T00:55:53.960Z,14.50
2019-03-02T00:58:25.664Z,13.37
2019-03-02T01:00:54.979Z,12.27
2019-03-02T01:06:08.979Z,13.23
2019-03-02T01:08:37.593Z,13.20
2019-03-02T01:11:06.660Z,13.13
2019-03-02T01:13:35.862Z,12.87
2019-03-02T01:16:04.988Z,13.10
2019-03-02T01:18:34.151Z,14.83
2019-03-02T01:21:03.911Z,13.93
2019-03-02T01:23:34.199Z,14.73
2019-03-02T01:26:03.312Z,12.90
2019-03-02T01:28:32.458Z,14.57
2019-03-02T01:31:01.734Z,13.37
2019-03-02T01:33:32.416Z,15.57
2019-03-02T01:36:01.522Z,13.80
2019-03-02T01:38:30.723Z,14.40
2019-03-02T01:40:59.877Z,12.50
2019-03-02T01:43:29.074Z,13.23
2019-03-02T01:45:59.837Z,13.67
2019-03-02T01:48:28.995Z,12.93
2019-03-02T01:50:58.104Z,14.20
2019-03-02T01:53:27.305Z,14.30
2019-03-02T01:55:56.472Z,13.67
2019-03-02T01:58:28.097Z,14.40
2019-03-02T02:00:56.484Z,15.10
2019-03-02T02:03:25.614Z,13.80
2019-03-02T02:05:54.705Z,14.63
2019-03-02T02:08:26.589Z,14.10
2019-03-02T02:10:54.736Z,14.03
2019-03-02T02:13:23.812Z,14.23
2019-03-02T02:15:53.055Z,14.03
2019-03-02T02:18:27.400Z,13.80
2019-03-02T02:20:53.093Z,14.73
2019-03-02T02:23:22.221Z,15.53
2019-03-02T02:25:51.302Z,16.37
2019-03-02T02:28:20.477Z,17.40
2019-03-02T02:30:49.575Z,16.70
2019-03-02T02:33:18.716Z,16.80
2019-03-02T02:35:47.833Z,16.77
2019-03-02T02:38:17.589Z,16.10
2019-03-02T02:40:46.824Z,14.83
2019-03-02T02:43:20.562Z,15.37
2019-03-02T02:45:48.896Z,15.57
2019-03-02T02:48:17.725Z,16.53
2019-03-02T02:50:47.400Z,15.97
2019-03-02T02:53:16.639Z,16.33
2019-03-02T02:55:45.853Z,16.83
2019-03-02T02:58:17.458Z,17.03
2019-03-02T03:00:50.209Z,16.70
2019-03-02T03:03:20.911Z,18.07
2019-03-02T03:05:49.286Z,16.70
2019-03-02T03:08:18.534Z,16.63
2019-03-02T03:10:47.656Z,17.13
2019-03-02T03:13:16.827Z,16.20
2019-03-02T03:15:48.654Z,17.73
2019-03-02T03:18:17.872Z,17.47
2019-03-02T03:20:48.743Z,17.73
2019-03-02T03:23:20.216Z,17.63
2019-03-02T03:25:56.130Z,16.70
2019-03-02T03:28:19.699Z,16.07
2019-03-02T03:30:48.866Z,15.77
2019-03-02T03:33:17.983Z,16.80
2019-03-02T03:35:47.118Z,17.67
2019-03-02T03:38:16.315Z,17.67
2019-03-02T03:40:45.413Z,15.77
2019-03-02T03:43:14.674Z,16.23
2019-03-02T03:45:45.064Z,18.07
2019-03-02T03:48:17.799Z,17.53
2019-03-02T03:50:48.180Z,16.63
2019-03-02T03:53:16.119Z,17.90
2019-03-02T03:55:45.351Z,17.67
2019-03-02T03:58:14.551Z,18.53
2019-03-02T04:00:43.726Z,17.73
2019-03-02T04:03:13.657Z,17.13
2019-03-02T04:05:47.205Z,19.10
2019-03-02T04:08:15.133Z,18.63
2019-03-02T04:10:44.314Z,18.57
2019-03-02T04:13:13.437Z,20.10
2019-03-02T04:15:43.511Z,20.63
2019-03-02T04:18:55.173Z,22.13
2019-03-02T04:21:28.140Z,21.50
2019-03-02T04:23:56.118Z,21.87
2019-03-02T04:26:31.512Z,21.97
2019-03-02T04:28:57.302Z,25.53
2019-03-02T04:31:26.448Z,24.47
2019-03-02T04:33:55.608Z,25.77
2019-03-02T04:36:24.765Z,25.50
2019-03-02T04:38:53.928Z,27.47
2019-03-02T04:41:23.055Z,27.33
2019-03-02T04:43:53.999Z,27.93
2019-03-02T04:46:23.054Z,28.13
2019-03-02T04:48:52.218Z,27.90
2019-03-02T04:51:21.355Z,27.83
2019-03-02T04:53:50.490Z,27.20
2019-03-02T04:56:20.641Z,26.00
2019-03-02T04:58:50.483Z,27.93
2019-03-02T05:01:19.620Z,26.93
2019-03-02T05:03:48.723Z,27.13
2019-03-02T05:06:18.906Z,28.47
2019-03-02T05:08:48.858Z,27.30
2019-03-02T05:11:18.003Z,26.60
2019-03-02T05:13:47.167Z,25.57
2019-03-02T05:16:16.249Z,24.70
2019-03-02T05:18:45.344Z,25.60
2019-03-02T05:21:14.440Z,26.40
2019-03-02T05:23:43.500Z,25.30
2019-03-02T05:26:12.647Z,25.73
2019-03-02T05:28:42.964Z,25.70
2019-03-02T05:31:13.910Z,25.30
2019-03-02T05:33:43.018Z,25.93
2019-03-02T05:36:12.282Z,24.83
2019-03-02T05:38:41.403Z,25.43
2019-03-02T05:41:10.573Z,25.97
2019-03-02T05:43:39.666Z,22.90
2019-03-02T05:46:08.803Z,25.17
2019-03-02T05:48:39.025Z,24.13
2019-03-02T05:51:08.722Z,23.53
2019-03-02T05:53:37.817Z,22.97
2019-03-02T05:56:06.910Z,23.67
2019-03-02T05:58:36.092Z,24.73
2019-03-02T06:01:05.216Z,23.17
2019-03-02T06:03:34.320Z,23.43
2019-03-02T06:06:03.516Z,23.67
2019-03-02T06:08:35.582Z,23.30
2019-03-02T06:11:03.493Z,23.63
2019-03-02T06:13:32.630Z,23.03
2019-03-02T06:16:01.800Z,23.10
2019-03-02T06:18:30.923Z,23.00
2019-03-02T06:21:00.072Z,23.10
2019-03-02T06:23:30.014Z,24.63
2019-03-02T06:26:00.172Z,23.20
2019-03-02T06:28:29.266Z,23.10
2019-03-02T06:30:58.411Z,22.37
2019-03-02T06:33:40.846Z,23.67
2019-03-02T06:36:10.088Z,22.70
2019-03-02T06:38:39.331Z,21.60
2019-03-02T06:41:08.520Z,22.23
2019-03-02T06:43:37.687Z,22.47
2019-03-02T06:46:06.831Z,21.70
2019-03-02T06:48:35.954Z,20.43
2019-03-02T06:51:07.825Z,21.93
2019-03-02T06:53:37.085Z,20.50
2019-03-02T06:56:06.742Z,20.60
2019-03-02T06:58:35.879Z,21.13
2019-03-02T07:01:04.910Z,21.70
2019-03-02T07:03:34.010Z,21.93
2019-03-02T07:06:03.054Z,21.50
2019-03-02T07:08:32.756Z,21.83
2019-03-02T07:11:02.752Z,21.90
2019-03-02T07:13:31.822Z,24.37
2019-03-02T07:16:00.933Z,22.27
2019-03-02T07:18:52.027Z,26.30
2019-03-02T07:21:21.086Z,25.67
2019-03-02T07:23:51.500Z,23.93
2019-03-02T07:26:20.935Z,23.57
2019-03-02T07:28:50.228Z,23.33
2019-03-02T07:31:19.390Z,24.57
2019-03-02T07:33:48.571Z,23.70
2019-03-02T07:36:17.690Z,23.80
2019-03-02T07:38:46.778Z,24.63
2019-03-02T07:41:18.735Z,24.43
2019-03-02T07:43:47.649Z,26.53
2019-03-02T07:46:16.732Z,23.97
2019-03-02T07:48:45.780Z,27.53
2019-03-02T07:51:14.833Z,27.03
2019-03-02T07:53:44.077Z,27.90
2019-03-02T07:56:13.226Z,27.77
2019-03-02T07:58:42.291Z,30.60
2019-03-02T08:01:12.860Z,31.67
2019-03-02T08:03:42.308Z,32.23
2019-03-02T08:06:11.448Z,31.20
2019-03-02T08:08:40.556Z,30.77
2019-03-02T08:11:10.655Z,31.13
2019-03-02T08:13:40.535Z,31.90
2019-03-02T08:16:09.599Z,32.93
2019-03-02T08:18:38.829Z,31.57
2019-03-02T08:21:09.615Z,29.57
2019-03-02T08:23:38.783Z,31.33
2019-03-02T08:26:07.880Z,31.40
2019-03-02T08:28:37.182Z,31.60
2019-03-02T08:31:08.969Z,32.93
2019-03-02T08:33:45.641Z,31.97
2019-03-02T08:36:07.902Z,35.03
2019-03-02T08:38:36.965Z,32.57
2019-03-02T08:41:06.282Z,31.13
2019-03-02T08:43:35.405Z,32.30
2019-03-02T08:46:08.694Z,33.97
2019-03-02T08:48:37.932Z,32.80
2019-03-02T08:51:08.061Z,33.33
2019-03-02T08:53:37.114Z,33.60
2019-03-02T08:56:09.874Z,35.87
2019-03-02T08:58:37.071Z,32.70
2019-03-02T09:01:06.147Z,35.57
2019-03-02T09:03:37.208Z,35.63
2019-03-02T09:06:11.480Z,32.63
2019-03-02T09:08:36.952Z,34.00
2019-03-02T09:11:06.067Z,33.70
2019-03-02T09:13:35.916Z,33.33
2019-03-02T09:16:06.463Z,30.33
2019-03-02T09:18:44.221Z,32.67
2019-03-02T09:21:08.940Z,33.03
2019-03-02T09:23:37.453Z,31.57
2019-03-02T09:26:06.506Z,31.30
2019-03-02T09:28:35.757Z,30.27
2019-03-02T09:31:04.895Z,28.47
2019-03-02T09:33:34.074Z,30.87
2019-03-02T09:36:03.135Z,28.93
2019-03-02T09:38:32.267Z,29.60
2019-03-02T09:41:01.341Z,27.37
2019-03-02T09:43:30.573Z,28.83
2019-03-02T09:45:59.912Z,29.23
2019-03-02T09:48:29.209Z,29.93
2019-03-02T09:50:58.380Z,29.40
2019-03-02T09:53:27.509Z,27.63
2019-03-02T09:55:58.187Z,29.83
2019-03-02T09:58:27.370Z,27.37
2019-03-02T10:00:56.865Z,26.93
2019-03-02T10:03:29.391Z,26.60
2019-03-02T10:05:58.469Z,28.57
2019-03-02T10:08:27.565Z,24.70
2019-03-02T10:10:56.691Z,27.40
2019-03-02T10:13:25.995Z,26.23
2019-03-02T10:15:55.057Z,25.50
2019-03-02T10:18:24.357Z,24.93
2019-03-02T10:20:55.385Z,25.87
2019-03-02T10:23:24.295Z,25.37
2019-03-02T10:25:53.477Z,24.60
2019-03-02T10:28:22.810Z,24.13
2019-03-02T10:30:52.123Z,23.47
2019-03-02T10:33:21.325Z,23.13
2019-03-02T10:35:53.291Z,24.17
2019-03-02T10:38:21.462Z,22.60
2019-03-02T10:40:50.527Z,21.37
2019-03-02T10:43:19.683Z,20.03
2019-03-02T10:45:48.862Z,22.43
2019-03-02T10:48:18.026Z,22.77
2019-03-02T10:50:47.168Z,23.43
2019-03-02T10:53:16.216Z,23.87
2019-03-02T10:55:48.217Z,21.17
2019-03-02T10:58:16.237Z,21.93
2019-03-02T11:00:45.410Z,21.03
2019-03-02T11:03:14.516Z,20.97
2019-03-02T11:05:56.910Z,19.53
2019-03-02T11:08:52.156Z,19.53
2019-03-02T11:11:40.446Z,20.00
2019-03-02T11:14:31.026Z,20.27
2019-03-02T11:17:08.662Z,18.40
2019-03-02T11:19:56.714Z,19.27
2019-03-02T11:22:38.745Z,18.83
2019-03-02T11:25:39.786Z,18.37
2019-03-02T11:28:31.284Z,18.63
2019-03-02T11:31:31.875Z,18.70
2019-03-02T11:34:26.136Z,18.87
2019-03-02T11:37:29.626Z,17.87
2019-03-02T11:40:25.790Z,15.33
2019-03-02T11:43:21.464Z,17.87
2019-03-02T11:46:06.664Z,16.57
2019-03-02T11:48:58.102Z,17.50
2019-03-02T11:51:36.595Z,14.53
2019-03-02T11:54:42.953Z,17.03
2019-03-02T11:57:27.592Z,16.73
2019-03-02T12:00:21.514Z,16.03
2019-03-02T12:03:07.551Z,17.60
2019-03-02T12:05:55.703Z,17.70
2019-03-02T12:08:42.432Z,17.67
2019-03-02T12:11:36.549Z,16.90
2019-03-02T12:14:23.309Z,17.27
2019-03-02T12:17:09.415Z,16.80
2019-03-02T12:19:56.298Z,14.77
2019-03-02T12:22:49.459Z,17.53
2019-03-02T12:25:36.536Z,16.00
2019-03-02T12:28:40.094Z,17.47
2019-03-02T12:31:19.255Z,15.30
2019-03-02T12:33:54.003Z,16.70
2019-03-02T12:36:44.165Z,16.23
2019-03-02T12:39:35.475Z,17.43
2019-03-02T12:42:17.090Z,17.03
2019-03-02T12:45:03.273Z,13.67
2019-03-02T12:47:57.497Z,15.47
2019-03-02T12:50:48.539Z,16.33
2019-03-02T12:53:54.959Z,16.03
2019-03-02T12:56:35.264Z,14.97
2019-03-02T12:59:16.418Z,14.63
2019-03-02T13:02:09.992Z,15.83
2019-03-02T13:05:12.161Z,15.73
2019-03-02T13:07:54.809Z,15.50
2019-03-02T13:10:41.849Z,16.03
2019-03-02T13:13:42.256Z,15.47
2019-03-02T13:16:36.862Z,15.53
2019-03-02T13:19:26.949Z,13.93
2019-03-02T13:22:19.361Z,13.73
2019-03-02T13:25:20.446Z,15.27
2019-03-02T13:28:09.889Z,15.30
2019-03-02T13:31:03.408Z,14.43
2019-03-02T13:33:53.402Z,14.87
2019-03-02T13:36:28.006Z,12.97
2019-03-02T13:39:13.969Z,13.47
2019-03-02T13:41:47.900Z,14.00
2019-03-02T13:44:32.128Z,13.60
2019-03-02T13:47:18.732Z,12.53
2019-03-02T13:50:14.035Z,13.87
2019-03-02T13:53:07.960Z,13.97
2019-03-02T13:56:01.868Z,14.23
2019-03-02T13:58:51.044Z,13.87
2019-03-02T14:01:40.204Z,14.07
2019-03-02T14:04:20.185Z,15.23
2019-03-02T14:07:13.935Z,14.73
2019-03-02T14:10:20.540Z,14.07
2019-03-02T14:13:06.759Z,14.03
2019-03-02T14:16:03.796Z,13.70
2019-03-02T14:18:41.311Z,14.30
2019-03-02T14:21:18.007Z,15.30
2019-03-02T14:24:18.253Z,13.47
2019-03-02T14:27:05.729Z,13.20
2019-03-02T14:29:42.972Z,13.80
2019-03-02T14:32:29.907Z,14.10
2019-03-02T14:35:20.310Z,14.27
2019-03-02T14:38:12.238Z,13.90
2019-03-02T14:41:15.517Z,14.83
2019-03-02T14:44:05.596Z,13.60
2019-03-02T14:46:56.345Z,12.03
2019-03-02T14:49:51.438Z,12.23
2019-03-02T14:52:38.080Z,11.67
2019-03-02T14:55:24.812Z,10.77
2019-03-02T14:58:10.001Z,11.03
2019-03-02T15:01:13.473Z,9.80
2019-03-02T15:04:06.150Z,10.43
2019-03-02T15:06:55.123Z,11.10
2019-03-02T15:09:35.266Z,10.33
2019-03-02T15:12:29.469Z,10.83
2019-03-02T15:15:23.676Z,9.43
2019-03-02T15:18:11.696Z,9.33
2019-03-02T15:21:00.023Z,9.73
2019-03-02T15:23:48.022Z,9.67
2019-03-02T15:26:34.639Z,9.47
2019-03-02T15:29:21.526Z,8.87
2019-03-02T15:32:16.093Z,9.77
2019-03-02T15:35:01.728Z,7.83
2019-03-02T15:37:48.399Z,8.73
2019-03-02T15:40:28.663Z,9.03
2019-03-02T15:43:27.598Z,8.40
2019-03-02T15:46:15.756Z,9.70
2019-03-02T15:49:10.532Z,8.97
2019-03-02T15:51:57.173Z,8.97
2019-03-02T15:54:44.186Z,8.83
2019-03-02T15:57:43.876Z,9.17
2019-03-02T16:00:31.840Z,10.53
2019-03-02T16:03:20.478Z,10.30
2019-03-02T16:06:07.992Z,9.57
2019-03-02T16:09:04.989Z,11.27
2019-03-02T16:12:04.310Z,9.57
2019-03-02T16:14:50.942Z,10.73
2019-03-02T16:17:39.961Z,10.77
2019-03-02T16:20:29.698Z,9.43
2019-03-02T16:23:16.592Z,9.17
2019-03-02T16:26:07.838Z,10.00
2019-03-02T16:28:59.627Z,9.57
2019-03-02T16:31:52.724Z,11.37
2019-03-02T16:34:47.103Z,9.73
2019-03-02T16:37:32.635Z,10.20
2019-03-02T16:40:30.013Z,10.60
2019-03-02T16:43:36.350Z,8.43
2019-03-02T16:46:30.335Z,7.87
2019-03-02T16:49:18.563Z,8.67
2019-03-02T16:52:10.176Z,7.63
2019-03-02T16:54:58.209Z,7.90
2019-03-02T16:57:49.053Z,7.90
2019-03-02T17:00:36.628Z,8.30
2019-03-02T17:03:24.514Z,7.30
2019-03-02T17:06:12.555Z,8.57
2019-03-02T17:08:59.172Z,7.90
2019-03-02T17:11:56.407Z,7.00
2019-03-02T17:14:46.024Z,7.43
2019-03-02T17:17:45.287Z,6.70
2019-03-02T17:20:29.760Z,6.03
2019-03-02T17:23:30.186Z,6.07
2019-03-02T17:26:12.230Z,4.43
2019-03-02T17:29:18.597Z,5.77
2019-03-02T17:32:05.539Z,5.10
2019-03-02T17:34:56.356Z,5.30
2019-03-02T17:37:34.670Z,4.40
2019-03-02T17:40:23.358Z,5.00
2019-03-02T17:43:11.378Z,4.97
2019-03-02T17:46:07.629Z,5.43
2019-03-02T17:48:53.634Z,6.37
2019-03-02T17:51:43.862Z,6.17
2019-03-02T17:54:29.777Z,5.73
2019-03-02T17:57:32.868Z,6.10
2019-03-02T18:00:21.414Z,6.30
2019-03-02T18:03:24.006Z,7.13
2019-03-02T18:06:20.448Z,6.93
2019-03-02T18:08:58.505Z,6.00
2019-03-02T18:11:38.304Z,6.83
2019-03-02T18:14:25.405Z,7.33
2019-03-02T18:17:15.228Z,9.20
2019-03-02T18:19:44.472Z,10.00
2019-03-02T18:22:13.615Z,9.37
2019-03-02T18:24:42.762Z,10.27
2019-03-02T18:27:11.829Z,10.63
2019-03-02T18:29:40.915Z,11.37
2019-03-02T18:32:10.124Z,11.53
2019-03-02T18:34:39.231Z,11.90
2019-03-02T18:37:08.288Z,12.00
2019-03-02T18:39:37.329Z,12.67
2019-03-02T18:42:06.453Z,13.23
2019-03-02T18:44:35.538Z,11.57
2019-03-02T18:47:04.973Z,11.60
2019-03-02T18:49:51.589Z,13.23
2019-03-02T18:52:38.353Z,13.93
2019-03-02T18:55:07.714Z,11.50
2019-03-02T18:57:36.892Z,11.80
2019-03-02T19:00:10.232Z,12.30
2019-03-02T19:02:39.282Z,11.70
2019-03-02T19:05:09.765Z,13.43
2019-03-02T19:07:39.698Z,11.90
2019-03-02T19:10:10.578Z,12.77
2019-03-02T19:12:40.039Z,12.33
2019-03-02T19:15:10.328Z,12.67
2019-03-02T19:17:46.048Z,13.57
2019-03-02T19:20:15.247Z,13.37
2019-03-02T19:22:44.404Z,11.50
2019-03-02T19:25:13.574Z,8.47
2019-03-02T19:27:42.662Z,9.93
2019-03-02T19:30:13.315Z,9.23
2019-03-02T19:32:42.403Z,10.00
2019-03-02T19:35:11.532Z,9.43
2019-03-02T19:37:40.665Z,10.80
2019-03-02T19:40:12.239Z,10.70
2019-03-02T19:42:41.337Z,10.77
2019-03-02T19:45:11.356Z,11.03
2019-03-02T19:47:40.463Z,9.23
2019-03-02T19:50:12.844Z,9.60
2019-03-02T19:52:41.931Z,7.40
2019-03-02T19:55:11.343Z,8.57
2019-03-02T19:57:40.502Z,8.40
2019-03-02T20:00:19.034Z,7.50
2019-03-02T20:02:48.166Z,7.60
2019-03-02T20:05:17.296Z,7.47
2019-03-02T20:07:46.427Z,7.50
2019-03-02T20:10:16.253Z,8.33
2019-03-02T20:12:45.298Z,9.83
2019-03-02T20:15:16.333Z,10.03
2019-03-02T20:17:45.367Z,10.70
2019-03-02T20:20:15.503Z,11.47
2019-03-02T20:22:44.599Z,10.60
2019-03-02T20:25:14.551Z,10.73
2019-03-02T20:27:43.685Z,10.10
2019-03-02T20:30:15.211Z,10.83
2019-03-02T20:32:44.336Z,10.93
2019-03-02T20:35:15.628Z,11.03
2019-03-02T20:37:44.905Z,11.80
2019-03-02T20:40:16.129Z,11.97
2019-03-02T20:42:45.245Z,12.70
2019-03-02T20:45:15.439Z,12.13
2019-03-02T20:47:44.513Z,12.83
2019-03-02T20:50:15.147Z,11.63
2019-03-02T20:52:44.267Z,11.17
2019-03-02T20:55:13.403Z,11.20
2019-03-02T20:57:42.466Z,11.47
2019-03-02T21:00:16.251Z,9.70
2019-03-02T21:02:45.272Z,10.17
2019-03-02T21:05:14.509Z,9.40
2019-03-02T21:07:43.544Z,9.20
2019-03-02T21:10:13.697Z,9.13
2019-03-02T21:12:42.787Z,9.53
2019-03-02T21:15:14.495Z,8.80
2019-03-02T21:17:43.618Z,9.97
2019-03-02T21:20:13.392Z,9.60
2019-03-02T21:22:42.520Z,9.53
2019-03-02T21:25:11.619Z,8.97
2019-03-02T21:27:40.723Z,8.70
2019-03-02T21:30:12.059Z,9.07
2019-03-02T21:32:41.148Z,8.10
2019-03-02T21:35:10.974Z,7.67
2019-03-02T21:37:40.003Z,8.10
2019-03-02T21:40:12.601Z,8.40
2019-03-02T21:42:41.708Z,7.70
2019-03-02T21:45:13.096Z,8.57
2019-03-02T21:47:42.187Z,8.20
2019-03-02T21:50:13.391Z,8.87
2019-03-02T21:52:42.529Z,8.73
2019-03-02T21:55:11.648Z,9.90
2019-03-02T21:57:40.782Z,8.30
2019-03-02T22:00:16.245Z,8.03
2019-03-02T22:02:45.343Z,8.00
2019-03-02T22:05:14.556Z,7.90
2019-03-02T22:07:43.588Z,9.03
2019-03-02T22:10:18.364Z,7.73
2019-03-02T22:12:47.404Z,7.53
2019-03-02T22:15:16.510Z,7.60
2019-03-02T22:17:48.242Z,7.37
2019-03-02T22:20:17.351Z,7.67
2019-03-02T22:22:46.405Z,8.27
2019-03-02T22:25:16.424Z,8.87
2019-03-02T22:27:45.449Z,8.70
2019-03-02T22:30:17.033Z,7.90
2019-03-02T22:32:46.055Z,8.50
2019-03-02T22:35:15.135Z,9.17
2019-03-02T22:37:44.199Z,10.17
2019-03-02T22:40:15.467Z,9.90
2019-03-02T22:42:44.540Z,9.67
2019-03-02T22:45:14.359Z,9.63
2019-03-02T22:47:43.442Z,10.07
2019-03-02T22:50:15.196Z,10.83
2019-03-02T22:52:44.278Z,9.93
2019-03-02T22:55:14.425Z,10.03
2019-03-02T22:57:44.404Z,9.77
2019-03-02T23:01:01.172Z,8.90
2019-03-02T23:03:28.849Z,8.70
2019-03-02T23:05:57.926Z,9.10
2019-03-02T23:08:26.991Z,9.10
2019-03-02T23:10:56.024Z,8.37
2019-03-02T23:13:25.079Z,8.07
2019-03-02T23:15:54.225Z,6.70
2019-03-02T23:18:23.284Z,7.20
2019-03-02T23:20:52.337Z,6.60
2019-03-02T23:23:21.452Z,6.70
2019-03-02T23:25:50.493Z,6.23
2019-03-02T23:28:19.572Z,6.53
2019-03-02T23:30:48.631Z,6.47
2019-03-02T23:33:19.034Z,6.50
2019-03-02T23:35:48.133Z,6.80
2019-03-02T23:38:17.200Z,6.40
2019-03-02T23:40:46.836Z,6.40
2019-03-02T23:43:15.943Z,6.17
2019-03-02T23:45:45.025Z,6.10
2019-03-02T23:48:14.101Z,6.23
2019-03-02T23:50:43.224Z,6.10
2019-03-02T23:53:12.279Z,5.70
2019-03-02T23:55:41.408Z,4.60
2019-03-02T23:58:10.529Z,4.60
